Time;durP1;ratioP1;P1;durP2;ratioP2;P2;SDS_P1;SDS_P2;PMS_P1;PMS_P2;Temp;Humidity;BMP_temperature;BMP_pressure;BME280_temperature;BME280_humidity;BME280_pressure;Samples;Min_cycle;Max_cycle;Signal;HPM_P1;HPM_P2
2022/10/19 00:00:47;;;;;;;9.98;1.63;;;;;;;10.08;100.00;155059.47;5013674;28;20044;-79
2022/10/19 00:03:14;;;;;;;15.55;1.90;;;;;;;10.09;100.00;155062.03;5000984;28;20077;-81
2022/10/19 00:05:39;;;;;;;8.35;1.30;;;;;;;10.15;100.00;155076.13;4991611;28;20038;-79
2022/10/19 00:08:05;;;;;;;10.98;1.80;;;;;;;10.23;100.00;155096.69;4994567;28;20733;-81
2022/10/19 00:10:31;;;;;;;12.93;1.70;;;;;;;10.26;100.00;155104.34;5028002;28;20129;-80
2022/10/19 00:12:57;;;;;;;8.80;1.70;;;;;;;10.23;100.00;155096.69;4999995;28;20037;-82
2022/10/19 00:15:26;;;;;;;15.50;2.20;;;;;;;10.22;100.00;155092.81;4997979;28;20395;-83
2022/10/19 00:17:52;;;;;;;11.75;1.75;;;;;;;10.20;100.00;155088.97;5017915;28;20096;-83
2022/10/19 00:20:17;;;;;;;12.77;1.75;;;;;;;10.18;100.00;155082.56;5017240;28;20817;-82
2022/10/19 00:22:43;;;;;;;11.82;2.05;;;;;;;10.17;100.00;155079.97;4994209;28;20057;-82
2022/10/19 00:25:09;;;;;;;14.10;1.60;;;;;;;10.17;100.00;155079.97;4998077;28;20038;-85
2022/10/19 00:27:38;;;;;;;15.98;1.55;;;;;;;10.15;100.00;155076.13;4996025;28;20029;-84
2022/10/19 00:30:04;;;;;;;10.35;1.80;;;;;;;10.06;100.00;155053.09;5011554;28;20038;-83
2022/10/19 00:32:33;;;;;;;13.32;1.60;;;;;;;10.08;100.00;155059.47;4995730;28;20073;-82
2022/10/19 00:35:00;;;;;;;13.27;1.50;;;;;;;10.05;100.00;155051.75;4998692;28;20057;-81
2022/10/19 00:37:38;;;;;;;;;;;;;;;;;;;;;
2022/10/19 00:40:13;;;;;;;24.77;3.05;;;;;;;10.04;100.00;155049.22;4999077;28;20034;-81
2022/10/19 00:42:39;;;;;;;14.57;2.15;;;;;;;10.13;100.00;155071.00;5024566;28;20033;-82
2022/10/19 00:45:15;;;;;;;16.67;1.65;;;;;;;10.14;100.00;155073.59;5028224;28;20040;-80
2022/10/19 00:47:46;;;;;;;8.90;1.75;;;;;;;10.07;100.00;155056.91;5011008;28;20038;-82
2022/10/19 00:50:16;;;;;;;15.20;2.00;;;;;;;10.04;100.00;155049.22;4999399;28;20456;-82
2022/10/19 00:52:42;;;;;;;16.08;1.80;;;;;;;9.97;100.00;155031.25;5009309;28;20639;-83
2022/10/19 00:55:10;;;;;;;7.97;1.65;;;;;;;10.23;100.00;155095.41;4998291;28;20037;-82
2022/10/19 00:57:35;;;;;;;16.65;2.25;;;;;;;10.20;100.00;155088.97;5035872;28;20045;-81
2022/10/19 01:00:06;;;;;;;9.00;1.63;;;;;;;10.18;100.00;155083.84;5012163;28;20046;-84
2022/10/19 01:02:32;;;;;;;10.30;1.70;;;;;;;10.14;100.00;155073.59;5011083;28;20045;-80
2022/10/19 01:04:58;;;;;;;14.18;1.95;;;;;;;10.25;100.00;155100.53;5011452;28;20050;-83
2022/10/19 01:07:25;;;;;;;9.40;1.60;;;;;;;10.43;100.00;155145.47;5010982;28;20041;-82
2022/10/19 01:09:52;;;;;;;11.02;1.88;;;;;;;10.33;100.00;155122.38;5021525;28;20025;-82
2022/10/19 01:12:24;;;;;;;12.80;1.98;;;;;;;10.35;100.00;155126.22;5013218;28;20030;-83
2022/10/19 01:15:12;;;;;;;11.48;1.90;;;;;;;10.32;100.00;155118.50;5014256;28;20045;-82
2022/10/19 01:17:49;;;;;;;14.02;2.00;;;;;;;10.24;100.00;155097.94;5022141;28;20037;-84
2022/10/19 01:20:37;;;;;;;10.98;1.33;;;;;;;10.19;100.00;155085.09;5028739;28;20041;-85
2022/10/19 01:23:29;;;;;;;12.15;2.00;;;;;;;10.14;100.00;155073.59;5013238;28;20046;-83
2022/10/19 01:26:14;;;;;;;9.23;2.25;;;;;;;10.15;100.00;155076.13;5010497;28;20060;-82
2022/10/19 01:29:04;;;;;;;11.25;1.85;;;;;;;10.14;100.00;155073.59;5016430;28;20095;-84
2022/10/19 01:31:49;;;;;;;10.27;1.80;;;;;;;10.12;100.00;155069.72;5020307;28;20385;-81
2022/10/19 01:34:24;;;;;;;12.70;1.88;;;;;;;10.06;100.00;155053.09;4993994;28;20560;-84
2022/10/19 01:37:10;;;;;;;14.23;2.10;;;;;;;10.10;100.00;155063.34;5011016;28;20104;-82
2022/10/19 01:40:16;;;;;;;15.73;1.75;;;;;;;10.00;100.00;155038.97;4988754;28;20033;-83
2022/10/19 01:42:53;;;;;;;23.30;1.73;;;;;;;9.98;100.00;155033.81;4976706;28;20052;-84
2022/10/19 01:45:40;;;;;;;14.35;1.77;;;;;;;10.05;100.00;155051.75;5027082;28;20065;-84
2022/10/19 01:48:25;;;;;;;13.80;1.70;;;;;;;10.04;100.00;155049.22;5002553;28;20128;-85
2022/10/19 01:50:58;;;;;;;12.02;1.58;;;;;;;10.06;100.00;155054.34;5017191;28;20063;-84
2022/10/19 01:53:27;;;;;;;10.95;1.70;;;;;;;10.06;100.00;155054.34;5011952;28;20049;-86
2022/10/19 01:55:55;;;;;;;7.88;1.40;;;;;;;10.18;100.00;155083.84;4981775;28;20030;-86
2022/10/19 01:58:28;;;;;;;10.82;1.95;;;;;;;10.05;100.00;155050.50;5025079;28;20038;-84
2022/10/19 02:00:57;;;;;;;12.27;1.92;;;;;;;10.15;100.00;155076.13;5025937;28;20804;-82
2022/10/19 02:03:24;;;;;;;16.45;1.85;;;;;;;10.12;100.00;155068.47;5027745;28;20046;-83
2022/10/19 02:05:51;;;;;;;14.55;1.95;;;;;;;10.16;100.00;155077.44;5025471;28;20038;-83
2022/10/19 02:08:26;;;;;;;24.45;1.90;;;;;;;10.18;100.00;155082.56;5001834;28;20046;-83
2022/10/19 02:10:55;;;;;;;10.40;1.85;;;;;;;10.12;100.00;155069.72;5027554;28;20026;-83
2022/10/19 02:13:22;;;;;;;11.45;1.65;;;;;;;10.06;100.00;155053.09;5010879;28;20492;-84
2022/10/19 02:15:51;;;;;;;15.98;2.72;;;;;;;10.13;100.00;155072.31;5009805;28;20044;-83
2022/10/19 02:18:23;;;;;;;18.42;2.80;;;;;;;10.09;100.00;155062.03;5010709;28;20081;-83
2022/10/19 02:20:48;;;;;;;14.90;2.20;;;;;;;10.12;100.00;155068.47;4994804;28;20041;-84
2022/10/19 02:23:17;;;;;;;15.80;1.95;;;;;;;10.13;100.00;155071.00;5012603;28;20045;-82
2022/10/19 02:25:43;;;;;;;16.08;2.20;;;;;;;10.13;100.00;155071.00;5012340;28;20030;-81
2022/10/19 02:28:09;;;;;;;27.33;2.35;;;;;;;10.07;100.00;155055.63;5027575;28;20040;-81
2022/10/19 02:30:34;;;;;;;25.40;2.72;;;;;;;9.93;100.00;155022.28;5010041;28;20029;-82
2022/10/19 02:33:00;;;;;;;15.05;2.10;;;;;;;9.97;100.00;155030.00;5010902;28;20044;-83
2022/10/19 02:35:26;;;;;;;10.90;2.17;;;;;;;9.91;100.00;155015.88;4996729;28;20495;-85
2022/10/19 02:37:52;;;;;;;11.02;1.90;;;;;;;9.88;100.00;155009.44;5034578;28;20108;-85
2022/10/19 02:40:18;;;;;;;10.02;1.65;;;;;;;9.88;100.00;155009.44;5011900;28;20030;-83
2022/10/19 02:43:01;;;;;;;16.05;2.42;;;;;;;9.89;100.00;155010.75;5014023;28;20037;-86
2022/10/19 02:45:28;;;;;;;17.88;2.58;;;;;;;9.89;100.00;155010.75;5011936;28;20040;-85
2022/10/19 02:47:59;;;;;;;10.23;1.83;;;;;;;9.82;100.00;154992.81;4996373;28;20163;-85
2022/10/19 02:50:25;;;;;;;24.50;2.67;;;;;;;9.88;100.00;155008.19;5013494;28;20045;-83
2022/10/19 02:52:51;;;;;;;14.00;2.10;;;;;;;9.80;100.00;154988.94;5014105;28;20129;-85
2022/10/19 02:55:17;;;;;;;15.13;1.95;;;;;;;9.84;100.00;154999.19;5013698;28;20195;-84
2022/10/19 02:57:42;;;;;;;18.20;2.13;;;;;;;9.82;100.00;154994.06;5013902;28;20088;-85
2022/10/19 03:00:09;;;;;;;9.02;2.20;;;;;;;9.87;100.00;155005.59;4996454;28;20038;-83
2022/10/19 03:02:34;;;;;;;18.95;2.20;;;;;;;9.79;100.00;154986.34;5028196;28;20149;-82
2022/10/19 03:05:00;;;;;;;16.17;2.10;;;;;;;9.78;100.00;154983.81;4987317;28;20643;-86
2022/10/19 03:07:26;;;;;;;18.13;2.50;;;;;;;9.66;100.00;154953.03;5012641;28;20033;-84
2022/10/19 03:09:51;;;;;;;23.02;2.05;;;;;;;9.86;100.00;155004.31;5027357;28;20026;-83
2022/10/19 03:12:17;;;;;;;9.27;2.50;;;;;;;9.79;100.00;154985.09;5024844;28;20088;-85
2022/10/19 03:14:43;;;;;;;29.55;2.22;;;;;;;9.79;100.00;154985.09;4993653;28;20058;-85
2022/10/19 03:17:09;;;;;;;11.85;2.00;;;;;;;9.86;100.00;155003.06;5023775;28;20065;-82
2022/10/19 03:19:36;;;;;;;24.50;2.33;;;;;;;9.87;100.00;155005.59;4994647;28;20049;-82
2022/10/19 03:22:02;;;;;;;15.23;1.90;;;;;;;9.78;100.00;154983.81;4996984;28;20033;-85
2022/10/19 03:24:29;;;;;;;10.70;1.75;;;;;;;9.71;100.00;154965.84;5012474;28;20044;-84
2022/10/19 03:26:54;;;;;;;18.60;2.58;;;;;;;9.68;100.00;154959.47;4998905;28;20403;-83
2022/10/19 03:29:20;;;;;;;11.95;2.13;;;;;;;9.71;100.00;154967.13;4997342;28;20041;-85
2022/10/19 03:31:45;;;;;;;16.48;2.05;;;;;;;9.70;100.00;154964.59;5029339;28;20053;-83
2022/10/19 03:34:11;;;;;;;16.73;2.00;;;;;;;9.80;100.00;154988.94;5013195;28;20064;-84
2022/10/19 03:36:39;;;;;;;11.88;1.45;;;;;;;9.83;100.00;154995.34;5015584;28;20052;-82
2022/10/19 03:39:07;;;;;;;12.38;1.42;;;;;;;9.91;100.00;155017.16;5018535;28;20037;-85
2022/10/19 03:41:35;;;;;;;15.25;1.63;;;;;;;9.99;100.00;155036.38;5013509;28;20032;-83
2022/10/19 03:44:00;;;;;;;13.27;1.20;;;;;;;9.85;100.00;155000.47;4995286;28;20030;-82
2022/10/19 03:46:27;;;;;;;6.90;1.05;;;;;;;9.83;100.00;154995.34;5028833;28;20035;-83
2022/10/19 03:48:52;;;;;;;9.57;1.42;;;;;;;9.85;100.00;155000.47;4994003;28;20033;-82
2022/10/19 03:51:21;;;;;;;8.23;1.30;;;;;;;9.83;100.00;154995.34;5014470;28;20567;-84
2022/10/19 03:53:51;;;;;;;7.22;1.75;;;;;;;9.84;100.00;154997.94;5017275;28;20407;-82
2022/10/19 03:56:18;;;;;;;12.10;1.63;;;;;;;9.85;100.00;155000.47;4997992;28;20038;-84
2022/10/19 03:58:46;;;;;;;13.50;1.60;;;;;;;9.78;100.00;154982.56;5013717;28;20030;-84
2022/10/19 04:01:19;;;;;;;6.07;0.85;;;;;;;9.65;100.00;154951.75;5014917;28;20484;-82
2022/10/19 04:03:45;;;;;;;;;;;;;;;9.71;100.00;154965.84;4998721;28;20033;-83
2022/10/19 04:06:16;;;;;;;14.05;1.63;;;;;;;9.71;100.00;154965.84;5014607;28;20406;-84
2022/10/19 04:08:43;;;;;;;11.43;1.08;;;;;;;9.64;100.00;154949.16;5016698;28;20122;-82
2022/10/19 04:11:12;;;;;;;12.43;1.33;;;;;;;9.50;100.00;154914.56;5014728;28;20519;-83
2022/10/19 04:13:38;;;;;;;18.98;1.48;;;;;;;9.45;100.00;154901.72;5011014;28;20411;-84
2022/10/19 04:16:04;;;;;;;12.45;1.50;;;;;;;9.47;100.00;154905.59;5029152;28;20103;-83
2022/10/19 04:18:30;;;;;;;12.75;1.98;;;;;;;9.49;100.00;154912.03;5030413;28;20543;-84
2022/10/19 04:21:01;;;;;;;15.65;1.95;;;;;;;9.48;100.00;154909.44;5029017;28;20118;-83
2022/10/19 04:23:29;;;;;;;13.85;1.70;;;;;;;9.59;100.00;154936.38;5004032;28;20396;-82
2022/10/19 04:26:03;;;;;;;29.30;2.47;;;;;;;9.52;100.00;154919.69;5015029;28;20452;-83
2022/10/19 04:28:29;;;;;;;16.95;2.20;;;;;;;9.49;100.00;154910.72;5010357;28;20139;-82
2022/10/19 04:30:55;;;;;;;19.17;1.90;;;;;;;9.49;100.00;154910.72;5014747;28;20026;-84
2022/10/19 04:33:20;;;;;;;17.48;2.03;;;;;;;9.47;100.00;154905.59;5005481;28;20488;-84
2022/10/19 04:35:46;;;;;;;11.60;2.15;;;;;;;9.52;100.00;154919.69;4997952;28;20034;-83
2022/10/19 04:38:11;;;;;;;16.77;1.88;;;;;;;9.53;100.00;154920.97;4998717;28;20112;-84
2022/10/19 04:40:37;;;;;;;18.95;2.05;;;;;;;9.47;100.00;154905.59;5027105;28;20069;-83
2022/10/19 04:43:04;;;;;;;20.63;2.28;;;;;;;9.44;100.00;154899.19;4998188;28;20034;-83
2022/10/19 04:45:30;;;;;;;12.23;2.00;;;;;;;9.41;100.00;154891.50;5014422;28;20033;-82
2022/10/19 04:47:56;;;;;;;16.10;1.88;;;;;;;9.46;100.00;154903.06;4992319;28;20029;-83
2022/10/19 04:50:23;;;;;;;15.27;1.90;;;;;;;9.58;100.00;154932.53;5015016;28;20157;-83
2022/10/19 04:52:54;;;;;;;13.75;2.03;;;;;;;9.50;100.00;154913.31;5005192;28;20044;-82
2022/10/19 04:55:19;;;;;;;14.32;1.60;;;;;;;9.59;100.00;154936.38;5015509;28;20037;-83
2022/10/19 04:57:45;;;;;;;14.85;1.90;;;;;;;9.52;100.00;154918.41;5012824;28;20125;-82
2022/10/19 05:00:11;;;;;;;18.77;2.42;;;;;;;9.52;100.00;154919.69;5001485;28;20057;-85
2022/10/19 05:02:42;;;;;;;12.48;1.70;;;;;;;9.58;100.00;154932.53;5005752;28;20030;-83
2022/10/19 05:05:07;;;;;;;12.75;2.05;;;;;;;9.41;100.00;154890.22;5010622;28;20054;-85
2022/10/19 05:07:33;;;;;;;16.60;1.70;;;;;;;9.43;100.00;154896.59;5024565;28;20105;-83
2022/10/19 05:09:58;;;;;;;16.38;1.70;;;;;;;9.46;100.00;154903.06;5012720;28;20034;-84
2022/10/19 05:12:24;;;;;;;15.15;1.88;;;;;;;9.40;100.00;154887.63;5031306;28;20029;-85
2022/10/19 05:14:49;;;;;;;18.92;1.80;;;;;;;9.35;100.00;154877.38;5017195;28;20402;-83
2022/10/19 05:17:15;;;;;;;7.80;1.52;;;;;;;9.32;100.00;154869.72;5007504;28;20033;-84
2022/10/19 05:19:41;;;;;;;14.20;2.25;;;;;;;9.27;100.00;154856.88;5000979;28;20038;-83
2022/10/19 05:22:08;;;;;;;14.82;1.80;;;;;;;9.30;100.00;154863.28;5002706;28;20452;-83
2022/10/19 05:24:33;;;;;;;17.95;2.15;;;;;;;9.33;100.00;154872.25;5006938;28;20391;-82
2022/10/19 05:26:59;;;;;;;15.60;2.35;;;;;;;9.23;100.00;154846.66;5013790;28;20034;-84
2022/10/19 05:29:24;;;;;;;14.88;2.70;;;;;;;9.25;100.00;154850.44;5014180;28;20103;-83
2022/10/19 05:31:50;;;;;;;18.38;2.30;;;;;;;9.24;100.00;154849.19;5015719;28;20026;-83
2022/10/19 05:34:15;;;;;;;18.58;2.53;;;;;;;9.19;100.00;154835.09;5013199;28;20061;-83
2022/10/19 05:36:41;;;;;;;17.52;2.58;;;;;;;9.25;100.00;154851.78;5014440;28;20399;-83
2022/10/19 05:39:12;;;;;;;18.40;2.67;;;;;;;9.21;100.00;154841.53;4994020;28;20050;-82
2022/10/19 05:41:37;;;;;;;15.68;2.63;;;;;;;9.23;100.00;154846.66;5005056;28;20030;-83
2022/10/19 05:44:04;;;;;;;13.55;2.50;;;;;;;9.17;100.00;154831.22;5002749;28;20033;-81
2022/10/19 05:46:31;;;;;;;13.52;2.60;;;;;;;9.24;100.00;154849.19;4997760;28;20048;-84
2022/10/19 05:48:57;;;;;;;18.10;2.30;;;;;;;9.30;100.00;154864.56;5012883;28;20060;-84
2022/10/19 05:51:25;;;;;;;19.77;3.65;;;;;;;9.29;100.00;154862.03;5006416;28;20030;-81
2022/10/19 05:53:52;;;;;;;25.48;2.75;;;;;;;9.20;100.00;154838.94;5014520;28;20561;-83
2022/10/19 05:56:25;;;;;;;13.02;2.50;;;;;;;9.36;100.00;154878.66;4999218;28;20042;-82
2022/10/19 05:58:51;;;;;;;14.45;2.20;;;;;;;9.35;100.00;154876.13;5029663;28;20034;-83
2022/10/19 06:01:18;;;;;;;17.58;2.65;;;;;;;9.38;100.00;154882.50;4997574;28;20037;-84
2022/10/19 06:03:45;;;;;;;16.40;2.22;;;;;;;9.35;100.00;154876.13;5028338;28;20100;-85
2022/10/19 06:06:11;;;;;;;13.30;1.73;;;;;;;9.55;100.00;154927.41;5001253;28;20084;-84
2022/10/19 06:08:37;;;;;;;15.10;2.25;;;;;;;9.71;100.00;154967.13;5027680;28;20113;-83
2022/10/19 06:11:14;;;;;;;15.02;2.08;;;;;;;9.80;100.00;154987.69;5027100;28;20026;-82
2022/10/19 06:13:43;;;;;;;12.88;1.92;;;;;;;9.85;100.00;155000.47;4998742;28;20029;-84
2022/10/19 06:16:10;;;;;;;14.48;1.98;;;;;;;9.72;100.00;154969.72;5013773;28;20686;-85
2022/10/19 06:18:36;;;;;;;14.70;1.83;;;;;;;9.80;100.00;154987.69;5028623;28;20029;-82
2022/10/19 06:21:07;;;;;;;14.75;1.85;;;;;;;9.85;100.00;155000.47;4990526;28;20064;-84
2022/10/19 06:23:34;;;;;;;11.15;2.00;;;;;;;9.86;100.00;155004.31;5003192;28;20030;-85
2022/10/19 06:26:05;;;;;;;25.27;2.13;;;;;;;9.83;100.00;154995.34;5001146;28;20061;-85
2022/10/19 06:28:31;;;;;;;28.17;2.87;;;;;;;9.86;100.00;155004.31;5009669;28;20125;-83
2022/10/19 06:30:57;;;;;;;13.35;2.40;;;;;;;9.85;100.00;155001.78;5006364;28;20124;-81
2022/10/19 06:33:23;;;;;;;17.02;2.22;;;;;;;9.92;100.00;155018.44;5003568;28;20034;-82
2022/10/19 06:35:49;;;;;;;11.65;1.83;;;;;;;9.93;100.00;155022.28;4997558;28;20041;-83
2022/10/19 06:38:14;;;;;;;13.50;1.80;;;;;;;9.99;100.00;155036.38;5001858;28;20052;-84
2022/10/19 06:40:40;;;;;;;9.57;2.03;;;;;;;9.96;100.00;155027.41;5002031;28;20120;-82
2022/10/19 06:43:05;;;;;;;15.02;1.80;;;;;;;10.02;100.00;155044.09;5000369;28;20053;-82
2022/10/19 06:45:31;;;;;;;14.57;1.70;;;;;;;10.05;100.00;155050.50;5011783;28;20059;-85
2022/10/19 06:47:59;;;;;;;12.48;1.70;;;;;;;10.06;100.00;155053.09;5014932;28;20034;-85
2022/10/19 06:50:24;;;;;;;23.90;1.90;;;;;;;10.11;100.00;155067.19;4997393;28;20056;-83
2022/10/19 06:52:50;;;;;;;20.45;2.15;;;;;;;10.29;100.00;155110.78;5001377;28;20519;-81
2022/10/19 06:55:16;;;;;;;17.48;2.05;;;;;;;10.37;100.00;155131.34;4999273;28;20045;-84
2022/10/19 06:57:43;;;;;;;14.82;2.05;;;;;;;10.57;100.00;155181.41;5015402;28;20105;-82
2022/10/19 07:00:10;;;;;;;21.33;1.95;;;;;;;10.65;100.00;155201.91;5008762;28;20064;-80
2022/10/19 07:02:35;;;;;;;18.90;1.98;;;;;;;10.57;100.00;155180.06;4998071;28;20030;-82
2022/10/19 07:05:01;;;;;;;21.08;1.88;;;;;;;10.68;100.00;155209.63;5000309;28;20041;-82
2022/10/19 07:07:27;;;;;;;18.80;2.50;;;;;;;10.65;100.00;155201.91;4998835;28;20030;-82
2022/10/19 07:09:52;;;;;;;12.52;1.95;;;;;;;10.75;100.00;155225.00;4993253;28;20045;-84
2022/10/19 07:12:18;;;;;;;13.98;2.08;;;;;;;10.73;100.00;155221.16;5015239;28;20048;-83
2022/10/19 07:14:44;;;;;;;15.70;2.20;;;;;;;10.72;100.00;155218.59;4998422;28;20635;-84
2022/10/19 07:17:10;;;;;;;15.13;2.20;;;;;;;10.90;100.00;155264.75;4987392;28;20045;-79
2022/10/19 07:19:36;;;;;;;16.95;2.30;;;;;;;10.89;100.00;155260.94;5015931;28;20095;-82
2022/10/19 07:22:02;;;;;;;15.75;2.25;;;;;;;10.90;100.00;155264.75;5014756;28;20042;-80
2022/10/19 07:24:28;;;;;;;16.33;2.08;;;;;;;10.89;100.00;155262.22;5012327;28;20105;-81
2022/10/19 07:26:54;;;;;;;19.23;2.28;;;;;;;10.95;100.00;155276.34;5029093;28;20085;-82
2022/10/19 07:29:19;;;;;;;21.90;3.30;;;;;;;10.87;100.00;155257.09;5011238;28;20575;-81
2022/10/19 07:31:45;;;;;;;17.25;2.20;;;;;;;10.85;100.00;155251.97;5012414;28;20026;-82
2022/10/19 07:34:12;;;;;;;18.95;2.28;;;;;;;10.92;100.00;155268.63;5000088;28;20389;-80
2022/10/19 07:36:39;;;;;;;23.48;2.50;;;;;;;10.97;100.00;155280.19;4997870;28;20034;-81
2022/10/19 07:39:06;;;;;;;20.80;2.70;;;;;;;10.93;100.00;155271.22;5013556;28;20138;-80
2022/10/19 07:41:33;;;;;;;22.00;2.25;;;;;;;10.96;100.00;155277.59;5028331;28;20091;-78
2022/10/19 07:44:00;;;;;;;15.07;2.15;;;;;;;11.08;100.00;155309.69;5012545;28;20034;-83
2022/10/19 07:46:32;;;;;;;15.68;2.08;;;;;;;11.15;100.00;155326.41;5011489;28;20034;-80
2022/10/19 07:48:58;;;;;;;16.13;2.17;;;;;;;11.32;100.00;155368.75;5012060;28;20128;-80
2022/10/19 07:51:25;;;;;;;18.20;2.00;;;;;;;11.35;100.00;155375.16;5017938;28;20034;-81
2022/10/19 07:53:52;;;;;;;9.70;2.40;;;;;;;11.36;100.00;155379.00;5002601;28;20138;-77
2022/10/19 07:56:22;;;;;;;18.63;1.95;;;;;;;11.42;100.00;155394.41;4992209;28;20085;-77
2022/10/19 07:58:49;;;;;;;19.70;2.05;;;;;;;11.41;100.00;155390.56;5011989;28;20480;-79
2022/10/19 08:01:18;;;;;;;11.70;2.28;;;;;;;11.44;100.00;155398.25;5017103;28;20034;-80
2022/10/19 08:03:44;;;;;;;11.00;1.83;;;;;;;11.47;100.00;155407.25;5008916;28;20041;-77
2022/10/19 08:06:13;;;;;;;12.68;1.90;;;;;;;11.51;100.00;155416.25;4991974;28;20464;-77
2022/10/19 08:08:39;;;;;;;16.40;1.80;;;;;;;11.43;100.00;155395.69;5027835;28;20072;-76
2022/10/19 08:11:26;;;;;;;15.07;2.30;;;;;;;11.47;100.00;155405.94;5003356;28;20069;-78
2022/10/19 08:13:52;;;;;;;11.88;2.08;;;;;;;11.47;100.00;155407.25;5003640;28;20045;-77
2022/10/19 08:16:31;;;;;;;9.73;1.70;;;;;;;11.57;100.00;155431.63;5012295;28;20030;-76
2022/10/19 08:18:59;;;;;;;12.70;1.58;;;;;;;11.56;100.00;155429.06;5009180;28;20059;-77
2022/10/19 08:21:26;;;;;;;10.02;1.83;;;;;;;11.51;100.00;155416.25;4995788;28;20042;-76
2022/10/19 08:23:52;;;;;;;10.68;1.63;;;;;;;11.64;100.00;155448.31;5019724;28;20044;-78
2022/10/19 08:26:18;;;;;;;11.73;2.40;;;;;;;11.67;100.00;155457.28;5000815;28;20030;-78
2022/10/19 08:28:44;;;;;;;11.95;1.50;;;;;;;11.75;100.00;155476.53;5008525;28;20041;-80
2022/10/19 08:31:11;;;;;;;10.77;2.42;;;;;;;11.89;100.00;155511.25;5000878;28;20563;-76
2022/10/19 08:33:37;;;;;;;11.95;1.85;;;;;;;12.03;100.00;155547.22;4995181;28;20026;-77
2022/10/19 08:36:08;;;;;;;6.35;1.40;;;;;;;12.11;100.00;155565.22;5003300;28;20048;-76
2022/10/19 08:38:35;;;;;;;10.25;2.00;;;;;;;12.15;100.00;155575.47;5012517;28;20049;-76
2022/10/19 08:41:38;;;;;;;6.82;1.42;;;;;;;12.17;100.00;155580.66;5010633;28;20062;-76
2022/10/19 08:44:24;;;;;;;7.50;1.25;;;;;;;12.22;100.00;155594.78;5009879;28;20049;-78
2022/10/19 08:47:20;;;;;;;7.65;1.38;;;;;;;12.06;100.00;155553.66;4987119;28;20049;-78
2022/10/19 08:49:46;;;;;;;6.45;1.35;;;;;;;12.10;100.00;155562.66;5021255;28;20034;-78
2022/10/19 08:52:15;;;;;;;7.63;1.60;;;;;;;12.17;100.00;155581.91;5000276;28;20041;-78
2022/10/19 08:54:53;;;;;;;11.55;1.55;;;;;;;12.21;100.00;155592.19;4980342;28;20037;-77
2022/10/19 08:57:49;;;;;;;9.90;1.40;;;;;;;12.15;100.00;155575.47;5006466;28;20125;-76
2022/10/19 09:00:28;;;;;;;10.18;1.40;;;;;;;12.10;100.00;155562.66;5007701;28;20056;-77
2022/10/19 09:02:57;;;;;;;10.85;1.40;;;;;;;12.11;100.00;155565.22;4996782;28;20034;-78
2022/10/19 09:05:34;;;;;;;10.02;2.33;;;;;;;12.25;100.00;155601.19;5012343;28;20569;-79
2022/10/19 09:08:00;;;;;;;6.70;1.52;;;;;;;12.31;100.00;155615.31;5007052;28;20427;-78
2022/10/19 09:10:30;;;;;;;9.10;1.48;;;;;;;12.41;100.00;155642.28;5008454;28;20044;-79
2022/10/19 09:13:04;;;;;;;14.13;1.63;;;;;;;12.29;100.00;155611.44;5009926;28;20036;-77
2022/10/19 09:15:43;;;;;;;10.68;1.60;;;;;;;12.22;100.00;155594.78;5025680;28;20480;-78
2022/10/19 09:18:11;;;;;;;8.95;1.40;;;;;;;12.19;100.00;155587.06;5011262;28;20033;-79
2022/10/19 09:20:40;;;;;;;7.47;1.42;;;;;;;12.27;100.00;155606.31;5010035;28;20063;-80
2022/10/19 09:23:20;;;;;;;9.70;1.50;;;;;;;12.39;100.00;155635.84;5011961;28;20046;-79
2022/10/19 09:25:48;;;;;;;11.93;1.80;;;;;;;12.48;100.00;155658.97;5011813;28;20194;-80
2022/10/19 09:28:51;;;;;;;10.73;2.00;;;;;;;12.53;100.00;155670.56;5011291;28;20121;-78
2022/10/19 09:31:31;;;;;;;13.05;1.67;;;;;;;12.60;100.00;155689.81;5001927;28;20080;-77
2022/10/19 09:34:04;;;;;;;9.32;1.65;;;;;;;12.59;100.00;155685.97;5001075;28;20065;-78
2022/10/19 09:36:37;;;;;;;10.43;1.88;;;;;;;12.70;100.00;155712.94;5008752;28;20061;-75
2022/10/19 09:39:03;;;;;;;11.43;1.83;;;;;;;12.61;100.00;155692.34;5026376;28;20045;-76
2022/10/19 09:41:29;;;;;;;12.43;2.17;;;;;;;12.56;100.00;155679.50;5012421;28;20042;-77
2022/10/19 09:43:55;;;;;;;9.52;1.85;;;;;;;12.56;100.00;155679.50;5027482;28;20036;-79
2022/10/19 09:46:32;;;;;;;11.27;1.90;;;;;;;12.54;100.00;155674.38;5006144;28;20248;-79
2022/10/19 09:49:00;;;;;;;13.75;2.42;;;;;;;12.79;100.00;155736.03;5005417;28;20105;-76
2022/10/19 09:51:38;;;;;;;7.65;1.50;;;;;;;12.95;100.00;155775.88;5001759;28;20044;-80
2022/10/19 09:54:04;;;;;;;10.93;1.80;;;;;;;13.28;99.80;155858.09;5008986;28;20038;-77
2022/10/19 09:56:35;;;;;;;10.95;1.73;;;;;;;13.54;99.67;155925.03;4994091;28;20042;-78
2022/10/19 09:59:01;;;;;;;12.15;2.25;;;;;;;13.48;96.80;155908.28;5023147;28;20780;-78
2022/10/19 10:01:38;;;;;;;11.00;1.40;;;;;;;13.41;93.96;155892.88;5004421;28;20043;-77
2022/10/19 10:04:15;;;;;;;9.55;1.58;;;;;;;13.49;94.52;155912.16;5023194;28;20124;-80
2022/10/19 10:06:42;;;;;;;10.25;1.60;;;;;;;13.44;95.46;155900.56;5008305;28;20129;-78
2022/10/19 10:09:16;;;;;;;11.77;1.55;;;;;;;13.21;100.00;155841.41;5011855;28;20041;-78
2022/10/19 10:11:46;;;;;;;9.80;1.77;;;;;;;12.87;98.62;155756.59;5021120;28;20030;-78
2022/10/19 10:14:38;;;;;;;6.03;1.30;;;;;;;12.68;100.00;155707.75;5009395;28;20046;-78
2022/10/19 10:17:11;;;;;;;10.60;2.03;;;;;;;12.46;100.00;155655.09;5005634;28;20040;-81
2022/10/19 10:19:47;;;;;;;;;;;;;;;12.30;100.00;155614.03;5004718;28;20286;-80
2022/10/19 10:22:24;;;;;;;13.18;1.80;;;;;;;12.25;100.00;155602.44;5016048;28;20096;-79
2022/10/19 10:24:52;;;;;;;13.25;2.08;;;;;;;12.14;100.00;155574.19;5010559;28;20033;-79
2022/10/19 10:27:30;;;;;;;17.40;2.42;;;;;;;12.34;100.00;155624.31;5023676;28;20088;-79
2022/10/19 10:29:56;;;;;;;8.30;1.60;;;;;;;12.31;100.00;155616.56;5008566;28;20080;-79
2022/10/19 10:32:23;;;;;;;9.38;1.70;;;;;;;12.28;100.00;155608.84;5008524;28;20037;-78
2022/10/19 10:35:02;;;;;;;11.57;1.98;;;;;;;12.25;100.00;155601.19;5012163;28;20044;-79
2022/10/19 10:37:45;;;;;;;7.30;1.80;;;;;;;12.51;100.00;155665.38;5009998;28;20049;-79
2022/10/19 10:40:25;;;;;;;12.48;2.00;;;;;;;12.65;100.00;155702.63;4986121;28;20048;-80
2022/10/19 10:42:53;;;;;;;9.73;2.00;;;;;;;12.59;100.00;155685.97;5010066;28;20033;-80
2022/10/19 10:45:41;;;;;;;7.38;1.67;;;;;;;12.31;100.00;155615.31;5024273;28;20038;-79
2022/10/19 10:48:27;;;;;;;10.90;2.03;;;;;;;12.38;100.00;155634.56;4998153;28;20407;-77
2022/10/19 10:50:53;;;;;;;12.25;1.73;;;;;;;12.41;100.00;155642.28;4996173;28;20038;-78
2022/10/19 10:53:42;;;;;;;10.70;1.75;;;;;;;12.44;100.00;155649.97;4996643;28;20407;-77
2022/10/19 10:56:29;;;;;;;8.63;1.73;;;;;;;12.52;100.00;155669.25;5010814;28;20045;-77
2022/10/19 10:59:03;;;;;;;11.00;1.60;;;;;;;12.71;99.56;155715.50;4994868;28;20026;-77
2022/10/19 11:01:36;;;;;;;6.93;1.67;;;;;;;12.93;98.86;155772.00;5027486;28;20042;-77
2022/10/19 11:04:12;;;;;;;6.75;1.58;;;;;;;13.25;95.55;155852.97;5010161;28;20064;-77
2022/10/19 11:06:55;;;;;;;5.57;1.40;;;;;;;13.46;93.30;155903.16;5008827;28;20045;-77
2022/10/19 11:09:28;;;;;;;3.70;1.00;;;;;;;13.69;92.67;155960.97;5010188;28;20046;-79
2022/10/19 11:12:00;;;;;;;6.45;1.60;;;;;;;13.89;88.55;156011.13;5008559;28;20032;-78
2022/10/19 11:14:34;;;;;;;9.05;1.60;;;;;;;13.98;87.79;156034.28;5009753;28;20038;-78
2022/10/19 11:17:06;;;;;;;12.35;1.75;;;;;;;14.15;87.01;156076.72;5022578;28;20053;-77
2022/10/19 11:19:42;;;;;;;9.30;2.13;;;;;;;14.45;86.55;156152.56;5025126;28;20037;-77
2022/10/19 11:23:01;;;;;;;11.52;1.90;;;;;;;14.66;85.00;156205.34;5008570;28;20142;-78
2022/10/19 11:25:43;;;;;;;7.57;1.30;;;;;;;15.11;87.23;156317.28;4965208;28;20047;-77
2022/10/19 11:28:15;;;;;;;11.85;1.63;;;;;;;15.13;85.85;156322.41;4988413;28;20056;-77
2022/10/19 11:31:03;;;;;;;;;;;;;;;15.03;87.78;156297.97;5011726;28;20029;-79